Wetterdaten: Woche 22.10.18 - 28.10.18 (KW43)
Datum Zeit Temp. A. Feuchte A. Luftdruck Regen Wind Richtung Taupunkt Windchill Windben
22.10.2018 00:00 9,1 C 77 % 1026,9 hPa 0,0 l/m 0,5 km/h N 5,2 C 9,1 C 5,2 km/h
22.10.2018 01:00 9,0 C 77 % 1026,9 hPa 0,0 l/m 0,1 km/h N 5,1 C 9,0 C 2,0 km/h
22.10.2018 02:00 8,9 C 78 % 1026,8 hPa 0,0 l/m 0,3 km/h N 5,3 C 8,9 C 5,2 km/h
22.10.2018 03:00 8,8 C 78 % 1026,4 hPa 0,0 l/m 0,1 km/h N 5,1 C 8,8 C 3,2 km/h
22.10.2018 04:00 8,0 C 78 % 1026,1 hPa 0,0 l/m 0,1 km/h N 4,5 C 8,0 C 2,4 km/h
22.10.2018 05:00 6,9 C 80 % 1026,3 hPa 0,0 l/m 0,0 km/h N 3,6 C 6,9 C 0,4 km/h
22.10.2018 06:00 6,4 C 81 % 1026,3 hPa 0,0 l/m 0,0 km/h N 3,4 C 6,4 C 1,6 km/h
22.10.2018 07:00 6,2 C 81 % 1026,4 hPa 0,0 l/m 0,2 km/h N 3,2 C 6,2 C 4,4 km/h
22.10.2018 08:00 6,8 C 81 % 1026,9 hPa 0,0 l/m 0,6 km/h N 3,8 C 6,8 C 6,8 km/h
22.10.2018 09:00 7,7 C 81 % 1027,2 hPa 0,0 l/m 0,9 km/h N 4,7 C 7,7 C 6,8 km/h
22.10.2018 10:00 8,9 C 79 % 1026,9 hPa 0,0 l/m 2,6 km/h N 5,5 C 8,9 C 11,3 km/h
22.10.2018 11:00 10,2 C 75 % 1026,9 hPa 0,0 l/m 4,3 km/h N 5,8 C 10,2 C 12,5 km/h
22.10.2018 12:00 11,8 C 69 % 1026,3 hPa 0,0 l/m 4,4 km/h N 6,1 C 11,8 C 16,5 km/h
22.10.2018 13:00 12,9 C 64 % 1025,8 hPa 0,0 l/m 3,1 km/h N 6,3 C 12,9 C 12,9 km/h
22.10.2018 14:00 13,4 C 62 % 1024,9 hPa 0,0 l/m 2,6 km/h N 6,2 C 13,4 C 11,3 km/h
22.10.2018 15:00 13,8 C 60 % 1024,6 hPa 0,0 l/m 2,8 km/h N 6,2 C 13,8 C 12,1 km/h
22.10.2018 16:00 13,4 C 61 % 1024,5 hPa 0,0 l/m 2,1 km/h N 6,1 C 13,4 C 12,5 km/h
22.10.2018 17:00 12,9 C 62 % 1024,5 hPa 0,0 l/m 0,3 km/h N 5,9 C 12,9 C 4,4 km/h
22.10.2018 18:00 11,4 C 66 % 1024,8 hPa 0,0 l/m 0,0 km/h N 5,3 C 11,4 C 0,0 km/h
22.10.2018 19:00 9,1 C 72 % 1025,3 hPa 0,0 l/m 0,0 km/h N 4,4 C 9,1 C 0,0 km/h
22.10.2018 20:00 9,8 C 74 % 1025,4 hPa 0,0 l/m 2,3 km/h N 5,4 C 9,8 C 10,1 km/h
22.10.2018 21:00 11,9 C 65 % 1025,5 hPa 0,0 l/m 3,9 km/h N 5,6 C 11,9 C 14,9 km/h
22.10.2018 22:00 12,0 C 64 % 1025,8 hPa 0,0 l/m 3,7 km/h N 5,3 C 12,0 C 14,1 km/h
22.10.2018 23:00 12,0 C 65 % 1025,7 hPa 0,0 l/m 1,9 km/h N 5,5 C 12,0 C 11,7 km/h
23.10.2018 00:00 12,0 C 66 % 1025,8 hPa 0,0 l/m 5,1 km/h N 5,8 C 11,9 C 16,9 km/h
23.10.2018 01:00 11,7 C 72 % 1025,9 hPa 0,0 l/m 7,3 km/h N 6,7 C 10,8 C 21,3 km/h
23.10.2018 02:00 10,9 C 76 % 1025,7 hPa 0,0 l/m 5,4 km/h N 6,9 C 10,9 C 19,7 km/h
23.10.2018 03:00 10,1 C 80 % 1025,6 hPa 0,0 l/m 5,6 km/h N 6,8 C 9,8 C 18,5 km/h
23.10.2018 04:00 9,8 C 81 % 1025,5 hPa 0,0 l/m 3,3 km/h N 6,7 C 9,8 C 13,7 km/h
23.10.2018 05:00 9,6 C 80 % 1025,3 hPa 0,0 l/m 3,5 km/h N 6,4 C 9,6 C 15,3 km/h
23.10.2018 06:00 9,4 C 81 % 1025,3 hPa 0,0 l/m 1,3 km/h N 6,3 C 9,4 C 9,6 km/h
23.10.2018 07:00 9,2 C 81 % 1025,0 hPa 0,0 l/m 1,3 km/h N 6,1 C 9,2 C 10,9 km/h
23.10.2018 08:00 9,1 C 80 % 1024,6 hPa 0,0 l/m 1,1 km/h N 5,9 C 9,1 C 8,8 km/h
23.10.2018 09:00 9,2 C 79 % 1024,0 hPa 0,0 l/m 0,9 km/h N 5,7 C 9,2 C 8,0 km/h
23.10.2018 10:00 9,3 C 80 % 1023,0 hPa 0,0 l/m 0,5 km/h N 5,9 C 9,3 C 5,6 km/h
23.10.2018 11:00 11,5 C 77 % 1021,8 hPa 0,0 l/m 8,6 km/h N 7,5 C 10,1 C 31,8 km/h
23.10.2018 12:00 12,9 C 69 % 1020,8 hPa 0,0 l/m 9,1 km/h N 7,4 C 11,3 C 34,6 km/h
23.10.2018 13:00 13,2 C 67 % 1019,8 hPa 0,0 l/m 6,7 km/h N 7,2 C 12,9 C 30,6 km/h
23.10.2018 14:00 13,1 C 65 % 1018,1 hPa 0,0 l/m 12,4 km/h N 6,7 C 9,9 C 38,6 km/h
23.10.2018 15:00 13,4 C 63 % 1017,2 hPa 0,0 l/m 7,7 km/h N 6,5 C 12,2 C 36,3 km/h
23.10.2018 16:00 13,4 C 62 % 1016,2 hPa 0,0 l/m 6,1 km/h N 6,3 C 13,2 C 32,6 km/h
23.10.2018 17:00 13,0 C 64 % 1016,0 hPa 0,3 l/m 8,3 km/h N 6,2 C 11,7 C 31,4 km/h
23.10.2018 18:00 11,2 C 74 % 1015,4 hPa 0,5 l/m 8,3 km/h N 6,7 C 10,0 C 34,6 km/h
23.10.2018 19:00 10,7 C 76 % 1014,1 hPa 0,0 l/m 7,7 km/h N 6,6 C 9,8 C 36,2 km/h
23.10.2018 20:00 12,6 C 60 % 1013,2 hPa 0,0 l/m 11,4 km/h N 5,0 C 9,9 C 42,7 km/h
23.10.2018 21:00 13,1 C 58 % 1012,9 hPa 0,0 l/m 15,8 km/h N 5,0 C 8,6 C 50,3 km/h
23.10.2018 22:00 12,4 C 64 % 1012,3 hPa 0,0 l/m 13,1 km/h N 5,6 C 8,8 C 45,5 km/h
23.10.2018 23:00 12,0 C 69 % 1011,6 hPa 0,0 l/m 18,6 km/h N 6,4 C 6,3 C 55,1 km/h
24.10.2018 00:00 11,0 C 77 % 1011,1 hPa 0,0 l/m 18,2 km/h N 7,0 C 5,1 C 52,3 km/h
24.10.2018 01:00 11,1 C 76 % 1010,4 hPa 0,3 l/m 19,5 km/h N 7,0 C 4,9 C 58,8 km/h
24.10.2018 02:00 11,9 C 71 % 1009,4 hPa 0,0 l/m 20,0 km/h N 6,7 C 5,8 C 58,3 km/h
24.10.2018 03:00 12,1 C 68 % 1008,5 hPa 0,0 l/m 19,5 km/h N 6,3 C 6,2 C 55,9 km/h
24.10.2018 04:00 12,3 C 65 % 1007,6 hPa 0,0 l/m 16,8 km/h N 5,9 C 7,3 C 55,9 km/h
24.10.2018 05:00 12,1 C 67 % 1007,1 hPa 0,0 l/m 15,4 km/h N 6,1 C 7,5 C 55,1 km/h
24.10.2018 06:00 12,0 C 70 % 1006,6 hPa 0,0 l/m 16,8 km/h N 6,7 C 6,9 C 49,1 km/h
24.10.2018 07:00 11,9 C 72 % 1006,0 hPa 0,0 l/m 14,8 km/h N 7,0 C 7,5 C 49,1 km/h
24.10.2018 08:00 12,1 C 73 % 1006,0 hPa 0,0 l/m 12,9 km/h N 7,4 C 8,5 C 48,3 km/h
24.10.2018 09:00 11,7 C 77 % 1007,0 hPa 0,5 l/m 13,6 km/h N 7,7 C 7,7 C 43,4 km/h
24.10.2018 10:00 10,9 C 80 % 1008,1 hPa 3,9 l/m 14,1 km/h N 7,7 C 6,8 C 36,2 km/h
24.10.2018 11:00 10,4 C 80 % 1009,5 hPa 12,5 l/m 5,0 km/h N 7,1 C 10,4 C 20,9 km/h
24.10.2018 12:00 9,9 C 80 % 1010,5 hPa 5,5 l/m 4,8 km/h N 6,6 C 9,3 C 20,1 km/h
24.10.2018 13:00 9,0 C 80 % 1010,9 hPa 2,1 l/m 3,8 km/h N 5,7 C 9,0 C 20,9 km/h
24.10.2018 14:00 8,7 C 80 % 1011,2 hPa 1,6 l/m 7,2 km/h N 5,4 C 7,5 C 26,2 km/h
24.10.2018 15:00 8,8 C 81 % 1012,0 hPa 1,0 l/m 2,7 km/h N 5,6 C 8,8 C 13,7 km/h
24.10.2018 16:00 8,6 C 81 % 1012,8 hPa 0,0 l/m 1,6 km/h N 5,6 C 8,6 C 12,9 km/h
24.10.2018 17:00 8,7 C 81 % 1013,9 hPa 0,0 l/m 3,2 km/h N 5,5 C 8,7 C 17,7 km/h
24.10.2018 18:00 8,7 C 79 % 1014,9 hPa 0,0 l/m 2,0 km/h N 5,3 C 8,7 C 13,7 km/h
24.10.2018 19:00 9,5 C 70 % 1015,7 hPa 0,0 l/m 7,2 km/h N 4,3 C 9,0 C 26,1 km/h
24.10.2018 20:00 9,1 C 69 % 1016,8 hPa 0,0 l/m 4,5 km/h N 3,8 C 9,1 C 22,1 km/h
24.10.2018 21:00 9,1 C 69 % 1017,9 hPa 0,0 l/m 4,5 km/h N 3,7 C 9,1 C 18,1 km/h
24.10.2018 22:00 9,3 C 71 % 1018,4 hPa 0,0 l/m 4,7 km/h N 4,3 C 9,4 C 19,3 km/h
24.10.2018 23:00 9,8 C 73 % 1018,1 hPa 0,0 l/m 6,2 km/h N 5,2 C 9,3 C 20,5 km/h
25.10.2018 00:00 10,3 C 73 % 1018,3 hPa 0,0 l/m 6,6 km/h N 5,7 C 9,8 C 21,7 km/h
25.10.2018 01:00 10,3 C 73 % 1018,2 hPa 0,0 l/m 5,0 km/h N 5,6 C 9,9 C 22,1 km/h
25.10.2018 02:00 10,1 C 75 % 1017,5 hPa 0,0 l/m 2,0 km/h N 5,9 C 10,1 C 12,9 km/h
25.10.2018 03:00 10,3 C 78 % 1017,0 hPa 0,0 l/m 2,6 km/h N 6,5 C 10,3 C 16,1 km/h
25.10.2018 04:00 10,5 C 80 % 1017,1 hPa 0,3 l/m 3,2 km/h N 7,2 C 10,5 C 16,9 km/h
25.10.2018 05:00 10,2 C 81 % 1016,5 hPa 0,3 l/m 2,5 km/h N 7,0 C 10,2 C 10,9 km/h
25.10.2018 06:00 10,8 C 80 % 1016,0 hPa 0,3 l/m 4,0 km/h N 7,5 C 10,6 C 14,5 km/h
25.10.2018 07:00 11,9 C 80 % 1015,0 hPa 0,0 l/m 7,6 km/h N 8,6 C 11,0 C 26,5 km/h
25.10.2018 08:00 13,0 C 79 % 1014,7 hPa 0,0 l/m 10,3 km/h N 9,5 C 10,8 C 29,0 km/h
25.10.2018 09:00 13,6 C 78 % 1014,5 hPa 0,0 l/m 10,2 km/h N 9,8 C 11,4 C 29,4 km/h
25.10.2018 10:00 14,8 C 72 % 1014,2 hPa 0,0 l/m 10,0 km/h N 9,9 C 13,0 C 30,6 km/h
25.10.2018 11:00 15,6 C 69 % 1013,8 hPa 0,0 l/m 9,6 km/h N 9,9 C 14,0 C 34,2 km/h
25.10.2018 12:00 16,0 C 69 % 1013,4 hPa 0,0 l/m 12,3 km/h N 10,2 C 13,3 C 38,6 km/h
25.10.2018 13:00 16,6 C 66 % 1012,5 hPa 0,0 l/m 11,3 km/h N 10,3 C 14,4 C 34,6 km/h
25.10.2018 14:00 17,3 C 65 % 1011,9 hPa 0,0 l/m 7,4 km/h N 10,5 C 16,8 C 25,0 km/h
25.10.2018 15:00 17,4 C 62 % 1011,4 hPa 0,0 l/m 11,2 km/h N 10,0 C 15,4 C 35,8 km/h
25.10.2018 16:00 16,4 C 64 % 1011,5 hPa 0,0 l/m 8,5 km/h N 9,5 C 15,4 C 33,0 km/h
25.10.2018 17:00 15,9 C 65 % 1011,5 hPa 0,0 l/m 7,5 km/h N 9,3 C 15,3 C 27,8 km/h
25.10.2018 18:00 15,4 C 68 % 1011,9 hPa 0,0 l/m 8,3 km/h N 9,4 C 14,3 C 26,1 km/h
25.10.2018 19:00 15,3 C 67 % 1012,4 hPa 0,0 l/m 7,7 km/h N 9,1 C 14,6 C 27,4 km/h
25.10.2018 20:00 15,0 C 66 % 1012,9 hPa 0,0 l/m 6,1 km/h N 8,7 C 14,7 C 22,5 km/h
25.10.2018 21:00 14,8 C 65 % 1012,9 hPa 0,0 l/m 5,8 km/h N 8,2 C 14,5 C 21,7 km/h
25.10.2018 22:00 14,5 C 67 % 1013,1 hPa 0,0 l/m 5,2 km/h N 8,3 C 14,4 C 21,7 km/h
25.10.2018 23:00 14,3 C 67 % 1013,5 hPa 0,0 l/m 5,4 km/h N 8,1 C 14,3 C 20,5 km/h
26.10.2018 00:00 13,9 C 68 % 1013,5 hPa 0,0 l/m 6,6 km/h N 8,0 C 13,6 C 23,3 km/h
26.10.2018 01:00 13,9 C 65 % 1013,4 hPa 0,0 l/m 8,6 km/h N 7,4 C 12,7 C 24,5 km/h
26.10.2018 02:00 13,6 C 68 % 1013,3 hPa 0,0 l/m 5,9 km/h N 7,8 C 13,4 C 21,3 km/h
26.10.2018 03:00 13,4 C 67 % 1012,8 hPa 0,0 l/m 6,0 km/h N 7,4 C 13,1 C 25,3 km/h
26.10.2018 04:00 13,3 C 67 % 1012,8 hPa 0,0 l/m 3,1 km/h N 7,3 C 13,3 C 13,3 km/h
26.10.2018 05:00 13,1 C 68 % 1012,9 hPa 0,0 l/m 2,4 km/h N 7,3 C 13,1 C 16,1 km/h
26.10.2018 06:00 12,3 C 70 % 1012,8 hPa 0,0 l/m 2,0 km/h N 7,1 C 12,3 C 11,3 km/h
26.10.2018 07:00 11,6 C 72 % 1012,8 hPa 0,0 l/m 0,1 km/h N 6,7 C 11,6 C 3,2 km/h
26.10.2018 08:00 11,1 C 75 % 1013,1 hPa 0,0 l/m 1,0 km/h N 6,8 C 11,1 C 5,3 km/h
26.10.2018 09:00 12,2 C 73 % 1013,3 hPa 0,0 l/m 0,6 km/h N 7,5 C 12,2 C 4,4 km/h
26.10.2018 10:00 13,1 C 72 % 1012,9 hPa 0,0 l/m 0,4 km/h N 8,2 C 13,1 C 3,6 km/h
26.10.2018 11:00 14,0 C 69 % 1012,3 hPa 0,0 l/m 0,2 km/h N 8,4 C 14,0 C 2,8 km/h
26.10.2018 12:00 15,3 C 65 % 1011,4 hPa 0,0 l/m 0,7 km/h N 8,8 C 15,3 C 5,6 km/h
26.10.2018 13:00 16,5 C 63 % 1010,3 hPa 0,0 l/m 0,6 km/h N 9,5 C 16,5 C 5,2 km/h
26.10.2018 14:00 16,1 C 67 % 1009,3 hPa 0,0 l/m 0,6 km/h N 9,9 C 16,1 C 4,8 km/h
26.10.2018 15:00 16,8 C 66 % 1008,2 hPa 0,0 l/m 0,1 km/h N 10,3 C 16,8 C 2,4 km/h
26.10.2018 16:00 16,2 C 68 % 1007,6 hPa 0,0 l/m 0,4 km/h N 10,3 C 16,2 C 4,8 km/h
26.10.2018 17:00 14,7 C 71 % 1007,2 hPa 0,0 l/m 0,1 km/h N 9,5 C 14,7 C 2,4 km/h
26.10.2018 18:00 12,7 C 74 % 1007,3 hPa 0,0 l/m 0,0 km/h N 8,2 C 12,7 C 0,0 km/h
26.10.2018 19:00 10,3 C 78 % 1007,2 hPa 0,0 l/m 0,0 km/h N 6,6 C 10,3 C 0,0 km/h
26.10.2018 20:00 8,7 C 80 % 1006,8 hPa 0,0 l/m 0,0 km/h N 5,5 C 8,7 C 0,0 km/h
26.10.2018 21:00 7,6 C 81 % 1006,5 hPa 0,0 l/m 0,0 km/h N 4,6 C 7,6 C 0,0 km/h
26.10.2018 22:00 7,2 C 81 % 1006,1 hPa 0,0 l/m 0,0 km/h N 4,2 C 7,2 C 0,0 km/h
26.10.2018 23:00 7,3 C 81 % 1005,7 hPa 0,0 l/m 0,0 km/h N 4,3 C 7,3 C 0,8 km/h
27.10.2018 00:00 7,2 C 81 % 1005,8 hPa 0,0 l/m 0,0 km/h N 4,1 C 7,2 C 1,2 km/h
27.10.2018 01:00 7,0 C 81 % 1005,6 hPa 0,0 l/m 0,6 km/h N 4,0 C 7,0 C 2,8 km/h
27.10.2018 02:00 7,2 C 81 % 1005,4 hPa 0,0 l/m 0,0 km/h N 4,2 C 7,2 C 0,0 km/h
27.10.2018 03:00 7,4 C 81 % 1005,3 hPa 0,0 l/m 0,0 km/h N 4,3 C 7,4 C 0,4 km/h
27.10.2018 04:00 6,9 C 81 % 1005,1 hPa 0,0 l/m 0,0 km/h N 3,9 C 6,9 C 0,8 km/h
27.10.2018 05:00 6,7 C 81 % 1005,4 hPa 0,0 l/m 0,0 km/h N 3,6 C 6,7 C 0,0 km/h
27.10.2018 06:00 6,6 C 82 % 1005,7 hPa 0,0 l/m 0,0 km/h N 3,6 C 6,6 C 0,0 km/h
27.10.2018 07:00 7,2 C 82 % 1005,6 hPa 0,0 l/m 0,0 km/h N 4,3 C 7,2 C 0,0 km/h
27.10.2018 08:00 7,7 C 82 % 1006,1 hPa 0,0 l/m 0,1 km/h N 4,8 C 7,7 C 1,2 km/h
27.10.2018 09:00 8,6 C 82 % 1006,4 hPa 0,0 l/m 1,2 km/h N 5,8 C 8,6 C 5,6 km/h
27.10.2018 10:00 10,5 C 81 % 1006,6 hPa 0,0 l/m 1,0 km/h N 7,4 C 10,5 C 8,4 km/h
27.10.2018 11:00 11,4 C 78 % 1007,0 hPa 0,0 l/m 0,6 km/h N 7,7 C 11,4 C 3,6 km/h
27.10.2018 12:00 11,1 C 77 % 1007,3 hPa 0,3 l/m 1,2 km/h N 7,2 C 11,1 C 6,4 km/h
27.10.2018 13:00 10,5 C 80 % 1007,6 hPa 0,5 l/m 2,2 km/h N 7,1 C 10,5 C 8,9 km/h
27.10.2018 14:00 10,3 C 81 % 1007,7 hPa 0,5 l/m 0,2 km/h N 7,1 C 10,3 C 3,2 km/h
27.10.2018 15:00 10,0 C 80 % 1007,8 hPa 1,0 l/m 0,3 km/h N 6,8 C 10,0 C 3,6 km/h
27.10.2018 16:00 9,7 C 80 % 1007,9 hPa 0,3 l/m 0,4 km/h N 6,4 C 9,7 C 2,4 km/h
27.10.2018 17:00 9,4 C 80 % 1008,1 hPa 0,3 l/m 0,0 km/h N 6,1 C 9,4 C 1,6 km/h
27.10.2018 18:00 9,0 C 80 % 1008,2 hPa 0,3 l/m 0,1 km/h N 5,7 C 9,0 C 2,0 km/h
27.10.2018 19:00 8,8 C 80 % 1008,4 hPa 0,0 l/m 0,6 km/h N 5,6 C 8,8 C 4,4 km/h
27.10.2018 20:00 8,7 C 81 % 1008,7 hPa 0,3 l/m 0,4 km/h N 5,6 C 8,7 C 2,8 km/h
27.10.2018 21:00 8,7 C 81 % 1008,6 hPa 0,0 l/m 0,4 km/h N 5,6 C 8,7 C 2,8 km/h
27.10.2018 22:00 8,6 C 81 % 1008,8 hPa 0,0 l/m 0,3 km/h N 5,5 C 8,6 C 3,2 km/h
27.10.2018 23:00 8,4 C 81 % 1008,7 hPa 0,3 l/m 0,3 km/h N 5,4 C 8,4 C 3,2 km/h
28.10.2018 00:00 8,2 C 81 % 1008,5 hPa 0,3 l/m 0,3 km/h N 5,1 C 8,2 C 3,6 km/h
28.10.2018 01:00 8,2 C 81 % 1008,0 hPa 0,0 l/m 0,2 km/h N 5,1 C 8,2 C 2,4 km/h
28.10.2018 02:00 8,3 C 81 % 1007,5 hPa 0,0 l/m 0,4 km/h N 5,2 C 8,3 C 4,2 km/h
28.10.2018 03:00 8,4 C 81 % 1006,6 hPa 0,0 l/m 0,1 km/h N 5,3 C 8,4 C 5,2 km/h
28.10.2018 04:00 8,3 C 81 % 1006,5 hPa 0,0 l/m 0,5 km/h N 5,2 C 8,3 C 3,6 km/h
28.10.2018 05:00 8,1 C 81 % 1006,2 hPa 0,5 l/m 0,2 km/h N 5,0 C 8,1 C 4,0 km/h
28.10.2018 06:00 7,7 C 81 % 1005,7 hPa 0,0 l/m 0,0 km/h N 4,7 C 7,7 C 1,2 km/h
28.10.2018 07:00 7,7 C 81 % 1005,7 hPa 0,0 l/m 0,1 km/h N 4,6 C 7,7 C 1,2 km/h
28.10.2018 08:00 7,8 C 82 % 1006,0 hPa 0,0 l/m 0,0 km/h N 4,9 C 7,8 C 1,2 km/h
28.10.2018 09:00 8,1 C 82 % 1005,4 hPa 0,0 l/m 0,1 km/h N 5,2 C 8,1 C 2,8 km/h
28.10.2018 10:00 8,9 C 82 % 1005,2 hPa 0,0 l/m 0,1 km/h N 6,0 C 8,9 C 2,4 km/h
28.10.2018 11:00 10,1 C 82 % 1004,9 hPa 0,0 l/m 0,3 km/h N 7,2 C 10,1 C 4,8 km/h
28.10.2018 12:00 11,2 C 82 % 1004,2 hPa 0,0 l/m 0,4 km/h N 8,2 C 11,2 C 4,8 km/h
28.10.2018 13:00 13,0 C 81 % 1003,3 hPa 0,0 l/m 1,9 km/h N 9,9 C 13,0 C 9,3 km/h
28.10.2018 14:00 14,0 C 80 % 1003,2 hPa 0,0 l/m 1,4 km/h N 10,6 C 14,0 C 6,4 km/h
28.10.2018 15:00 14,2 C 80 % 1003,3 hPa 0,3 l/m 2,3 km/h N 10,8 C 14,2 C 8,8 km/h
28.10.2018 16:00 14,1 C 80 % 1003,3 hPa 0,3 l/m 0,7 km/h N 10,7 C 14,1 C 6,4 km/h
28.10.2018 17:00 14,0 C 80 % 1003,4 hPa 0,8 l/m 0,2 km/h N 10,6 C 14,0 C 3,2 km/h
28.10.2018 18:00 13,3 C 80 % 1002,9 hPa 0,3 l/m 0,1 km/h N 9,9 C 13,3 C 1,6 km/h
28.10.2018 19:00 12,7 C 80 % 1002,8 hPa 0,0 l/m 0,3 km/h N 9,3 C 12,7 C 3,6 km/h
28.10.2018 20:00 12,7 C 80 % 1002,8 hPa 0,0 l/m 1,2 km/h N 9,3 C 12,7 C 5,6 km/h
28.10.2018 21:00 13,2 C 80 % 1002,9 hPa 0,0 l/m 2,1 km/h N 9,9 C 13,2 C 6,8 km/h
28.10.2018 22:00 13,4 C 80 % 1002,9 hPa 0,0 l/m 2,1 km/h N 10,0 C 13,4 C 10,1 km/h
28.10.2018 23:00 13,4 C 80 % 1003,0 hPa 0,0 l/m 1,3 km/h N 10,0 C 13,4 C 8,4 km/h
Min-Datum _ 22.10.18 23.10.18 28.10.18 - 22.10.18 - 22.10.18 24.10.18 22.10.18
_ Min-Zeit 07:15 20:45 20:00 - 00:00 - 07:00 01:45 00:00
Minimum _ 6,1 C 54 % 1002,4 hPa - 0,0 km/h - 3,1 C 3,7 C 0,0 km/h
Max-Datum _ 25.10.18 27.10.18 22.10.18 24.10.18 24.10.18 - 28.10.18 25.10.18 24.10.18
_ Max-Zeit 15:15 06:30 09:15 11:30 01:45 - 14:45 14:00 01:00
Maximum _ 17,8 C 82 % 1027,3 hPa 12,5 l/m 23,2 km/h
N
- 10,8 C 17,2 C 64,4 km/h
N
Durchschnitt _ 11,1 C 75 % 1013,4 hPa #34,8 l/m 4,1 km/h N 6,7 C 10,4 C 15,5 km/h